Terminal Aerodrome Forecast
Issued by NWS Billings, MT

Home | Current Version | Previous Version | Graphics & Text | Print | Product List | Glossary On
Versions: 1 2 3 4 5 6 7 8 9 10 11 12 13 14 15 16 17 18 19
000
FTUS45 KBYZ 301720
TAFMLS
TAF
KMLS 301720Z 3018/0118 29007KT P6SM VCSH SCT016 BKN060
      TEMPO 3018/3022 OVC016
     FM302300 VRB05KT P6SM SCT015 BKN050
     FM010900 VRB05KT P6SM SCT015 OVC030
     FM011200 VRB05KT P6SM OVC030=

USA.gov is the U.S. government's official web portal to all federal, state and local government web resources and services.